createdAt,value
2022-09-06T00:01:13.545Z,0.35
2022-09-06T00:03:41.991Z,0.68
2022-09-06T00:06:18.130Z,2.65
2022-09-06T00:08:47.249Z,1.35
2022-09-06T00:11:15.639Z,0.93
2022-09-06T00:13:43.883Z,1.15
2022-09-06T00:16:14.688Z,0.55
2022-09-06T00:18:42.819Z,0.57
2022-09-06T00:21:24.513Z,1.10
2022-09-06T00:23:52.270Z,1.08
2022-09-06T00:26:19.979Z,1.00
2022-09-06T00:28:47.996Z,0.50
2022-09-06T00:31:24.314Z,1.77
2022-09-06T00:33:52.172Z,0.68
2022-09-06T00:36:20.176Z,1.30
2022-09-06T00:38:47.873Z,0.35
2022-09-06T00:41:16.481Z,0.95
2022-09-06T00:43:44.060Z,0.70
2022-09-06T00:46:16.124Z,2.10
2022-09-06T00:48:44.947Z,0.98
2022-09-06T00:51:15.443Z,1.27
2022-09-06T00:53:43.171Z,1.50
2022-09-06T00:56:10.996Z,4.15
2022-09-06T00:58:38.632Z,0.65
2022-09-06T01:01:07.406Z,1.08
2022-09-06T01:03:36.487Z,0.40
2022-09-06T01:06:21.973Z,0.93
2022-09-06T01:09:33.207Z,1.20
2022-09-06T01:12:24.672Z,0.65
2022-09-06T01:15:10.352Z,0.52
2022-09-06T01:17:43.599Z,0.80
2022-09-06T01:20:23.411Z,3.83
2022-09-06T01:23:09.568Z,0.57
2022-09-06T01:25:39.906Z,0.82
2022-09-06T01:28:31.385Z,0.35
2022-09-06T01:31:05.603Z,0.40
2022-09-06T01:33:52.148Z,1.05
2022-09-06T01:36:24.429Z,0.80
2022-09-06T01:38:52.053Z,3.47
2022-09-06T01:41:19.790Z,0.52
2022-09-06T01:43:50.637Z,1.05
2022-09-06T01:46:29.782Z,0.22
2022-09-06T01:49:18.434Z,0.45
2022-09-06T01:55:10.847Z,0.73
2022-09-06T01:58:06.024Z,1.95
2022-09-06T02:00:45.631Z,0.80
2022-09-06T02:03:31.404Z,0.60
2022-09-06T02:06:13.357Z,4.88
2022-09-06T02:09:07.235Z,0.70
2022-09-06T02:11:44.465Z,0.50
2022-09-06T02:14:23.702Z,1.02
2022-09-06T02:16:53.772Z,0.85
2022-09-06T02:19:44.639Z,0.82
2022-09-06T02:22:15.348Z,2.15
2022-09-06T02:24:45.028Z,0.40
2022-09-06T02:27:13.159Z,0.70
2022-09-06T02:29:40.986Z,1.50
2022-09-06T02:32:22.119Z,2.28
2022-09-06T02:34:55.406Z,2.90
2022-09-06T02:37:26.262Z,0.38
2022-09-06T02:39:55.466Z,3.58
2022-09-06T02:42:24.844Z,0.43
2022-09-06T02:44:52.318Z,0.65
2022-09-06T02:47:19.883Z,0.60
2022-09-06T02:49:47.402Z,0.95
2022-09-06T02:52:15.651Z,0.50
2022-09-06T02:54:43.310Z,0.30
2022-09-06T02:57:10.908Z,3.90
2022-09-06T02:59:38.793Z,0.30
2022-09-06T03:02:06.986Z,0.77
2022-09-06T03:04:34.778Z,0.60
2022-09-06T03:07:02.288Z,0.55
2022-09-06T03:09:29.661Z,2.00
2022-09-06T03:11:57.488Z,1.05
2022-09-06T03:14:25.106Z,4.68
2022-09-06T03:16:52.817Z,1.77
2022-09-06T03:19:21.715Z,0.20
2022-09-06T03:21:49.378Z,0.40
2022-09-06T03:24:16.930Z,0.45
2022-09-06T03:26:44.487Z,0.85
2022-09-06T03:29:11.759Z,2.55
2022-09-06T03:31:39.398Z,0.88
2022-09-06T03:34:10.975Z,1.00
2022-09-06T03:36:38.822Z,1.10
2022-09-06T03:39:07.235Z,3.25
2022-09-06T03:41:34.788Z,0.30
2022-09-06T03:44:02.433Z,1.13
2022-09-06T03:46:30.848Z,3.53
2022-09-06T03:48:59.246Z,0.40
2022-09-06T03:51:26.902Z,3.30
2022-09-06T03:53:54.325Z,2.88
2022-09-06T03:56:22.093Z,0.50
2022-09-06T03:58:49.701Z,0.90
2022-09-06T04:01:18.040Z,0.77
2022-09-06T04:03:46.574Z,2.10
2022-09-06T04:06:14.163Z,3.13
2022-09-06T04:08:41.989Z,1.25
2022-09-06T04:11:11.298Z,1.23
2022-09-06T04:13:39.082Z,1.33
2022-09-06T04:16:06.846Z,0.73
2022-09-06T04:18:34.566Z,0.70
2022-09-06T04:21:02.511Z,0.85
2022-09-06T04:23:30.282Z,1.20
2022-09-06T04:25:59.194Z,1.33
2022-09-06T04:28:26.987Z,0.65
2022-09-06T04:30:57.417Z,0.82
2022-09-06T04:33:27.519Z,0.32
2022-09-06T04:35:59.513Z,0.47
2022-09-06T04:38:31.388Z,0.57
2022-09-06T04:40:59.083Z,0.20
2022-09-06T04:43:26.684Z,0.43
2022-09-06T04:45:54.247Z,0.80
2022-09-06T04:48:21.798Z,1.27
2022-09-06T04:50:49.444Z,0.40
2022-09-06T04:53:17.312Z,5.85
2022-09-06T04:55:44.840Z,0.10
2022-09-06T04:58:12.484Z,0.00
2022-09-06T05:00:41.937Z,0.45
2022-09-06T05:03:10.000Z,0.43
2022-09-06T05:05:40.145Z,2.85
2022-09-06T05:08:07.840Z,0.95
2022-09-06T05:10:35.553Z,0.88
2022-09-06T05:13:03.292Z,0.80
2022-09-06T05:15:30.962Z,8.02
2022-09-06T05:18:05.673Z,1.73
2022-09-06T05:20:34.830Z,0.60
2022-09-06T05:23:02.780Z,1.15
2022-09-06T05:25:30.495Z,0.30
2022-09-06T05:27:59.419Z,1.23
2022-09-06T05:30:26.945Z,3.03
2022-09-06T05:32:54.676Z,2.17
2022-09-06T05:35:22.390Z,1.67
2022-09-06T05:37:50.046Z,1.08
2022-09-06T05:40:17.851Z,2.15
2022-09-06T05:42:46.293Z,0.00
2022-09-06T05:45:13.855Z,0.00
2022-09-06T05:47:41.500Z,0.13
2022-09-06T05:50:09.677Z,0.08
2022-09-06T05:52:38.249Z,0.00
2022-09-06T05:55:06.252Z,0.75
2022-09-06T05:57:34.216Z,0.68
2022-09-06T06:00:02.199Z,0.10
2022-09-06T06:02:31.383Z,0.05
2022-09-06T06:05:00.647Z,0.00
2022-09-06T06:07:28.211Z,0.00
2022-09-06T06:09:55.659Z,0.00
2022-09-06T06:12:23.419Z,0.10
2022-09-06T06:14:51.090Z,0.15
2022-09-06T06:17:18.474Z,0.90
2022-09-06T06:19:46.315Z,1.70
2022-09-06T06:22:13.969Z,0.77
2022-09-06T06:24:41.492Z,0.25
2022-09-06T06:27:09.004Z,0.22
2022-09-06T06:29:36.602Z,0.47
2022-09-06T06:32:04.512Z,0.70
2022-09-06T06:34:32.377Z,1.23
2022-09-06T06:37:00.352Z,1.00
2022-09-06T06:39:28.150Z,1.35
2022-09-06T06:41:55.817Z,0.88
2022-09-06T06:44:23.627Z,2.25
2022-09-06T06:46:51.637Z,1.25
2022-09-06T06:49:19.619Z,0.32
2022-09-06T06:51:47.233Z,0.17
2022-09-06T06:54:14.886Z,0.00
2022-09-06T06:56:44.865Z,0.40
2022-09-06T06:59:12.536Z,1.00
2022-09-06T07:01:41.217Z,0.40
2022-09-06T07:04:10.617Z,0.60
2022-09-06T07:12:29.762Z,0.85
2022-09-06T07:14:57.662Z,0.20
2022-09-06T07:17:25.134Z,0.00
2022-09-06T07:22:40.885Z,0.03
2022-09-06T07:25:09.973Z,0.22
2022-09-06T07:27:53.069Z,0.52
2022-09-06T07:30:21.020Z,1.25
2022-09-06T07:32:48.868Z,1.55
2022-09-06T07:35:19.482Z,0.10
2022-09-06T07:38:13.795Z,0.20
2022-09-06T07:40:41.278Z,0.10
2022-09-06T07:43:09.061Z,0.45
2022-09-06T07:45:36.973Z,0.03
2022-09-06T07:48:04.484Z,0.63
2022-09-06T07:50:50.595Z,0.35
2022-09-06T07:53:30.623Z,1.10
2022-09-06T07:56:00.031Z,0.20
2022-09-06T07:58:28.326Z,0.30
2022-09-06T08:01:15.882Z,0.00
2022-09-06T08:03:44.356Z,0.65
2022-09-06T08:06:12.716Z,0.15
2022-09-06T08:11:26.233Z,0.00
2022-09-06T08:16:25.590Z,0.10
2022-09-06T08:24:02.157Z,1.05
2022-09-06T08:26:31.823Z,0.85
2022-09-06T08:29:06.935Z,0.00
2022-09-06T08:31:35.394Z,0.52
2022-09-06T08:34:03.345Z,0.13
2022-09-06T08:36:31.681Z,1.10
2022-09-06T08:39:05.586Z,0.30
2022-09-06T08:41:42.143Z,0.30
2022-09-06T08:47:04.707Z,0.40
2022-09-06T08:49:38.118Z,0.13
2022-09-06T08:52:20.638Z,1.85
2022-09-06T08:55:06.440Z,0.10
2022-09-06T08:57:46.096Z,0.13
2022-09-06T09:00:15.160Z,0.40
2022-09-06T09:02:51.802Z,0.15
2022-09-06T09:05:48.129Z,0.85
2022-09-06T09:08:36.079Z,0.30
2022-09-06T09:11:06.755Z,0.30
2022-09-06T09:13:59.412Z,0.15
2022-09-06T09:16:27.295Z,0.82
2022-09-06T09:19:06.238Z,0.30
2022-09-06T09:21:36.736Z,0.00
2022-09-06T09:24:08.133Z,0.00
2022-09-06T09:26:51.420Z,0.00
2022-09-06T09:29:21.788Z,0.22
2022-09-06T09:31:57.112Z,0.10
2022-09-06T09:34:40.611Z,0.00
2022-09-06T09:40:24.849Z,0.00
2022-09-06T09:42:53.840Z,0.00
2022-09-06T09:45:24.488Z,0.00
2022-09-06T09:47:52.163Z,0.15
2022-09-06T09:50:36.033Z,0.08
2022-09-06T09:53:15.344Z,0.60
2022-09-06T09:55:47.394Z,0.00
2022-09-06T09:58:29.654Z,0.08
2022-09-06T10:12:03.358Z,0.75
2022-09-06T10:14:40.109Z,0.00
2022-09-06T10:17:08.093Z,0.00
2022-09-06T10:19:46.926Z,0.22
2022-09-06T10:22:22.594Z,0.25
2022-09-06T10:25:18.731Z,0.00
2022-09-06T10:28:21.227Z,0.10
2022-09-06T10:31:16.275Z,2.13
2022-09-06T10:34:09.734Z,0.38
2022-09-06T10:36:40.269Z,0.05
2022-09-06T10:39:41.897Z,0.10
2022-09-06T10:42:27.624Z,0.10
2022-09-06T10:45:29.426Z,0.00
2022-09-06T10:48:28.795Z,0.32
2022-09-06T10:51:02.617Z,0.00
2022-09-06T10:53:44.828Z,0.03
2022-09-06T11:01:40.718Z,0.55
2022-09-06T11:04:22.440Z,0.00
2022-09-06T11:06:56.148Z,0.10
2022-09-06T11:09:42.171Z,2.08
2022-09-06T11:12:37.692Z,0.00
2022-09-06T11:15:09.211Z,0.00
2022-09-06T11:17:47.477Z,0.10
2022-09-06T11:20:31.814Z,0.00
2022-09-06T11:23:27.703Z,0.00
2022-09-06T11:26:04.716Z,0.30
2022-09-06T11:28:42.968Z,0.00
2022-09-06T11:34:23.921Z,0.00
2022-09-06T11:37:04.798Z,0.05
2022-09-06T11:42:50.159Z,0.00
2022-09-06T11:45:21.945Z,0.03
2022-09-06T11:47:53.426Z,0.13
2022-09-06T11:50:46.676Z,0.00
2022-09-06T11:53:18.604Z,0.00
2022-09-06T11:56:10.380Z,0.28
2022-09-06T11:58:40.738Z,0.00
2022-09-06T12:01:35.095Z,0.17
2022-09-06T12:04:06.596Z,0.10
2022-09-06T12:07:08.260Z,0.00
2022-09-06T12:09:43.492Z,0.55
2022-09-06T12:12:16.825Z,0.00
2022-09-06T12:14:49.288Z,0.00
2022-09-06T12:17:20.758Z,0.00
2022-09-06T12:20:07.518Z,0.60
2022-09-06T12:22:37.771Z,0.10
2022-09-06T12:25:15.494Z,0.00
2022-09-06T12:27:55.482Z,0.00
2022-09-06T12:30:44.660Z,0.10
2022-09-06T12:33:26.476Z,0.00
2022-09-06T12:38:26.528Z,0.00
2022-09-06T12:40:59.102Z,0.20
2022-09-06T12:43:27.187Z,0.20
2022-09-06T12:45:55.036Z,0.00
2022-09-06T12:48:41.384Z,0.32
2022-09-06T12:51:21.213Z,0.28
2022-09-06T12:53:55.636Z,0.32
2022-09-06T12:56:24.996Z,0.25
2022-09-06T12:58:52.652Z,2.17
2022-09-06T13:01:27.811Z,0.00
2022-09-06T13:03:55.620Z,0.10
2022-09-06T13:06:27.241Z,0.10
2022-09-06T13:08:57.789Z,0.00
2022-09-06T13:11:39.718Z,0.00
2022-09-06T13:14:23.653Z,0.03
2022-09-06T13:16:53.046Z,0.00
2022-09-06T13:19:32.470Z,0.50
2022-09-06T13:22:01.164Z,0.30
2022-09-06T13:24:46.892Z,0.40
2022-09-06T13:27:36.968Z,0.40
2022-09-06T13:30:09.800Z,0.65
2022-09-06T13:32:46.441Z,0.00
2022-09-06T13:35:24.250Z,1.30
2022-09-06T13:37:51.868Z,0.32
2022-09-06T13:41:06.735Z,0.00
2022-09-06T13:43:33.498Z,0.10
2022-09-06T13:46:13.133Z,1.65
2022-09-06T13:48:41.736Z,0.10
2022-09-06T13:51:10.096Z,0.60
2022-09-06T13:53:38.168Z,0.43
2022-09-06T13:56:08.932Z,0.32
2022-09-06T13:58:37.255Z,0.20
2022-09-06T14:01:08.834Z,0.60
2022-09-06T14:03:37.982Z,0.20
2022-09-06T14:06:06.139Z,0.43
2022-09-06T14:08:49.783Z,0.10
2022-09-06T14:11:21.157Z,0.08
2022-09-06T14:13:49.206Z,0.17
2022-09-06T14:16:16.777Z,0.00
2022-09-06T14:18:45.227Z,0.60
2022-09-06T14:21:12.991Z,0.22
2022-09-06T14:23:40.432Z,0.25
2022-09-06T14:26:07.751Z,0.00
2022-09-06T14:28:35.692Z,0.05
2022-09-06T14:31:14.688Z,0.00
2022-09-06T14:33:42.608Z,4.72
2022-09-06T14:36:12.858Z,0.50
2022-09-06T14:38:41.542Z,0.75
2022-09-06T14:41:10.089Z,1.95
2022-09-06T14:43:37.851Z,0.82
2022-09-06T14:46:07.185Z,0.00
2022-09-06T14:48:38.169Z,0.32
2022-09-06T14:51:17.902Z,0.15
2022-09-06T14:53:46.440Z,0.10
2022-09-06T14:56:14.300Z,0.45
2022-09-06T14:58:42.665Z,0.52
2022-09-06T15:01:14.850Z,0.45
2022-09-06T15:03:48.598Z,0.00
2022-09-06T15:06:17.579Z,0.85
2022-09-06T15:08:45.747Z,0.13
2022-09-06T15:11:13.512Z,2.58
2022-09-06T15:13:41.521Z,0.17
2022-09-06T15:16:10.776Z,0.25
2022-09-06T15:18:38.550Z,0.17
2022-09-06T15:21:11.291Z,0.25
2022-09-06T15:23:39.646Z,0.00
2022-09-06T15:26:08.745Z,0.32
2022-09-06T15:28:37.161Z,0.00
2022-09-06T15:31:05.777Z,0.20
2022-09-06T15:33:35.335Z,0.00
2022-09-06T15:36:07.636Z,0.00
2022-09-06T15:38:36.332Z,0.15
2022-09-06T15:41:12.252Z,0.30
2022-09-06T15:46:12.710Z,0.65
2022-09-06T15:48:41.929Z,0.00
2022-09-06T15:51:10.772Z,0.65
2022-09-06T15:53:38.931Z,0.00
2022-09-06T15:56:07.731Z,0.15
2022-09-06T15:58:35.279Z,0.10
2022-09-06T16:01:13.297Z,0.10
2022-09-06T16:03:55.666Z,0.10
2022-09-06T16:06:28.109Z,0.00
2022-09-06T16:09:08.364Z,0.00
2022-09-06T16:11:39.747Z,0.20
2022-09-06T16:14:10.798Z,0.00
2022-09-06T16:16:39.887Z,0.20
2022-09-06T16:19:08.141Z,0.15
2022-09-06T16:21:38.221Z,0.10
2022-09-06T16:24:07.054Z,0.10
2022-09-06T16:26:37.412Z,0.35
2022-09-06T16:29:05.959Z,0.73
2022-09-06T16:31:40.040Z,0.20
2022-09-06T16:34:09.680Z,0.63
2022-09-06T16:36:37.374Z,0.08
2022-09-06T16:39:05.943Z,1.20
2022-09-06T16:41:36.144Z,0.45
2022-09-06T16:44:03.670Z,0.82
2022-09-06T16:46:31.347Z,1.70
2022-09-06T16:49:01.192Z,3.55
2022-09-06T16:51:30.027Z,3.80
2022-09-06T16:53:58.075Z,10.35
2022-09-06T16:56:27.075Z,8.38
2022-09-06T16:58:59.133Z,3.00
2022-09-06T17:01:28.270Z,6.30
2022-09-06T17:03:56.753Z,5.20
2022-09-06T17:06:24.994Z,4.68
2022-09-06T17:08:52.627Z,8.13
2022-09-06T17:11:22.165Z,6.20
2022-09-06T17:13:51.374Z,12.20
2022-09-06T17:16:40.802Z,6.05
2022-09-06T17:19:09.911Z,5.13
2022-09-06T17:21:39.236Z,9.32
2022-09-06T17:24:07.668Z,8.45
2022-09-06T17:26:38.684Z,8.23
2022-09-06T17:29:07.309Z,13.25
2022-09-06T17:31:36.007Z,13.98
2022-09-06T17:34:03.907Z,21.48
2022-09-06T17:36:33.016Z,54.20
2022-09-06T17:39:02.208Z,45.13
2022-09-06T17:41:38.788Z,38.25
2022-09-06T17:44:08.122Z,43.13
2022-09-06T17:46:35.767Z,45.13
2022-09-06T17:49:05.380Z,31.80
2022-09-06T17:51:33.482Z,29.35
2022-09-06T17:54:01.232Z,30.85
2022-09-06T17:56:30.500Z,26.73
2022-09-06T17:59:01.104Z,26.17
2022-09-06T18:01:31.243Z,29.40
2022-09-06T18:04:00.734Z,27.27
2022-09-06T18:06:30.841Z,24.40
2022-09-06T18:09:02.566Z,23.08
2022-09-06T18:11:33.101Z,20.25
2022-09-06T18:14:01.549Z,20.95
2022-09-06T18:16:30.412Z,21.52
2022-09-06T18:19:00.267Z,24.95
2022-09-06T18:21:31.019Z,24.33
2022-09-06T18:23:59.223Z,21.80
2022-09-06T18:26:26.589Z,23.70
2022-09-06T18:28:54.236Z,17.50
2022-09-06T18:31:24.256Z,22.50
2022-09-06T18:33:54.319Z,20.70
2022-09-06T18:36:21.960Z,18.23
2022-09-06T18:38:49.704Z,19.77
2022-09-06T18:41:36.208Z,18.20
2022-09-06T18:44:04.896Z,21.58
2022-09-06T18:46:34.019Z,27.45
2022-09-06T18:49:02.043Z,27.63
2022-09-06T18:51:30.340Z,24.60
2022-09-06T18:53:59.422Z,22.77
2022-09-06T18:56:27.496Z,27.50
2022-09-06T18:58:59.235Z,19.50
2022-09-06T19:01:33.489Z,27.15
2022-09-06T19:04:01.621Z,29.20
2022-09-06T19:06:31.533Z,23.70
2022-09-06T19:11:27.742Z,24.90
2022-09-06T19:13:56.534Z,19.75
2022-09-06T19:16:26.303Z,18.83
2022-09-06T19:18:57.416Z,12.48
2022-09-06T19:21:26.188Z,16.92
2022-09-06T19:23:59.403Z,17.65
2022-09-06T19:26:29.583Z,16.65
2022-09-06T19:29:00.437Z,14.45
2022-09-06T19:31:29.704Z,7.90
2022-09-06T19:33:57.411Z,12.07
2022-09-06T19:36:26.677Z,7.63
2022-09-06T19:39:08.487Z,7.53
2022-09-06T19:41:41.778Z,6.38
2022-09-06T19:44:10.947Z,10.07
2022-09-06T19:46:40.891Z,7.30
2022-09-06T19:49:10.544Z,4.35
2022-09-06T19:51:39.643Z,5.80
2022-09-06T19:54:07.500Z,4.60
2022-09-06T19:56:36.212Z,6.07
2022-09-06T19:59:08.947Z,9.07
2022-09-06T20:01:38.765Z,8.23
2022-09-06T20:04:08.768Z,4.00
2022-09-06T20:06:36.688Z,4.57
2022-09-06T20:09:05.849Z,5.47
2022-09-06T20:11:34.170Z,6.00
2022-09-06T20:14:01.776Z,4.63
2022-09-06T20:16:30.574Z,7.22
2022-09-06T20:19:02.173Z,4.70
2022-09-06T20:21:30.199Z,7.15
2022-09-06T20:23:59.345Z,5.75
2022-09-06T20:26:28.850Z,4.97
2022-09-06T20:28:58.409Z,6.55
2022-09-06T20:31:28.137Z,5.20
2022-09-06T20:33:55.804Z,3.17
2022-09-06T20:36:25.320Z,3.53
2022-09-06T20:38:53.606Z,1.35
2022-09-06T20:41:23.757Z,2.95
2022-09-06T20:43:58.849Z,2.53
2022-09-06T20:46:28.818Z,2.92
2022-09-06T20:49:02.613Z,1.98
2022-09-06T20:51:30.185Z,3.17
2022-09-06T20:53:59.585Z,4.40
2022-09-06T20:56:33.758Z,4.70
2022-09-06T20:59:03.460Z,3.92
2022-09-06T21:01:35.124Z,4.35
2022-09-06T21:04:06.372Z,2.20
2022-09-06T21:06:35.783Z,2.20
2022-09-06T21:09:04.913Z,2.10
2022-09-06T21:11:32.445Z,2.60
2022-09-06T21:14:01.285Z,2.75
2022-09-06T21:16:29.647Z,4.72
2022-09-06T21:19:02.271Z,4.60
2022-09-06T21:21:32.025Z,4.95
2022-09-06T21:24:01.803Z,2.90
2022-09-06T21:26:29.587Z,2.95
2022-09-06T21:28:57.440Z,3.85
2022-09-06T21:31:29.733Z,3.83
2022-09-06T21:33:59.550Z,1.77
2022-09-06T21:36:32.257Z,2.83
2022-09-06T21:39:02.418Z,2.28
2022-09-06T21:41:31.207Z,3.15
2022-09-06T21:44:00.188Z,5.25
2022-09-06T21:46:32.845Z,2.28
2022-09-06T21:49:05.123Z,1.75
2022-09-06T21:51:32.975Z,3.08
2022-09-06T21:54:04.372Z,2.28
2022-09-06T21:56:34.245Z,3.95
2022-09-06T22:01:32.245Z,1.73
2022-09-06T22:04:00.497Z,2.13
2022-09-06T22:06:29.246Z,1.60
2022-09-06T22:08:57.961Z,3.92
2022-09-06T22:11:29.570Z,1.45
2022-09-06T22:14:03.097Z,2.45
2022-09-06T22:16:31.210Z,1.55
2022-09-06T22:18:59.105Z,0.93
2022-09-06T22:21:26.927Z,1.73
2022-09-06T22:23:56.668Z,4.88
2022-09-06T22:26:25.763Z,1.10
2022-09-06T22:28:57.422Z,2.75
2022-09-06T22:31:26.901Z,4.13
2022-09-06T22:33:55.010Z,1.50
2022-09-06T22:36:23.915Z,3.95
2022-09-06T22:38:57.753Z,1.58
2022-09-06T22:41:29.065Z,2.75
2022-09-06T22:43:56.899Z,1.10
2022-09-06T22:46:24.544Z,1.25
2022-09-06T22:48:52.414Z,1.92
2022-09-06T22:51:20.045Z,0.63
2022-09-06T22:53:47.611Z,1.42
2022-09-06T22:56:15.274Z,1.73
2022-09-06T22:58:42.768Z,1.63
2022-09-06T23:01:15.312Z,2.17
2022-09-06T23:03:43.912Z,4.00
2022-09-06T23:06:11.689Z,2.10
2022-09-06T23:08:40.901Z,1.15
2022-09-06T23:11:11.919Z,2.40
2022-09-06T23:13:43.589Z,3.00
2022-09-06T23:16:12.824Z,1.48
2022-09-06T23:18:40.266Z,1.30
2022-09-06T23:21:09.289Z,1.17
2022-09-06T23:23:39.220Z,2.38
2022-09-06T23:28:38.833Z,2.92
2022-09-06T23:31:08.229Z,2.25
2022-09-06T23:33:38.905Z,1.42
2022-09-06T23:36:08.293Z,1.00
2022-09-06T23:38:37.223Z,1.20
2022-09-06T23:41:05.775Z,2.10
2022-09-06T23:43:33.590Z,1.17
2022-09-06T23:46:01.257Z,1.30
2022-09-06T23:48:30.512Z,1.90
2022-09-06T23:50:58.404Z,0.88
2022-09-06T23:53:25.953Z,0.98
2022-09-06T23:55:53.524Z,0.98
2022-09-06T23:58:21.383Z,1.15
